createdAt,value
2018-09-18T00:00:15.757Z,23.30
2018-09-18T00:01:18.800Z,23.30
2018-09-18T00:02:21.876Z,23.30
2018-09-18T00:03:24.986Z,23.30
2018-09-18T00:04:28.266Z,23.40
2018-09-18T00:05:31.576Z,23.30
2018-09-18T00:06:34.647Z,23.30
2018-09-18T00:07:37.716Z,23.30
2018-09-18T00:08:40.780Z,23.30
2018-09-18T00:09:43.809Z,23.30
2018-09-18T00:10:46.847Z,23.30
2018-09-18T00:11:49.995Z,23.30
2018-09-18T00:12:53.087Z,23.30
2018-09-18T00:13:56.269Z,23.40
2018-09-18T00:14:59.247Z,23.30
2018-09-18T00:16:02.481Z,23.30
2018-09-18T00:17:05.521Z,23.30
2018-09-18T00:18:08.595Z,23.40
2018-09-18T00:19:11.703Z,23.30
2018-09-18T00:20:14.751Z,23.30
2018-09-18T00:21:17.861Z,23.40
2018-09-18T00:22:20.968Z,23.40
2018-09-18T00:23:24.155Z,23.30
2018-09-18T00:24:27.265Z,23.30
2018-09-18T00:25:30.343Z,23.40
2018-09-18T00:26:33.403Z,23.30
2018-09-18T00:27:36.472Z,23.40
2018-09-18T00:28:39.546Z,23.30
2018-09-18T00:29:43.903Z,23.30
2018-09-18T00:30:48.046Z,23.30
2018-09-18T00:31:51.464Z,23.40
2018-09-18T00:32:55.161Z,23.30
2018-09-18T00:33:58.220Z,23.30
2018-09-18T00:35:01.241Z,23.30
2018-09-18T00:36:04.320Z,23.30
2018-09-18T00:37:07.489Z,23.30
2018-09-18T00:38:10.641Z,23.30
2018-09-18T00:39:13.733Z,23.30
2018-09-18T00:40:16.713Z,23.30
2018-09-18T00:41:19.812Z,23.30
2018-09-18T00:42:22.928Z,23.30
2018-09-18T00:43:26.044Z,23.30
2018-09-18T00:44:29.138Z,23.30
2018-09-18T00:45:32.413Z,23.30
2018-09-18T00:46:35.776Z,23.30
2018-09-18T00:47:38.868Z,23.30
2018-09-18T00:48:41.963Z,23.30
2018-09-18T00:49:45.048Z,23.30
2018-09-18T00:50:48.084Z,23.30
2018-09-18T00:51:51.318Z,23.30
2018-09-18T00:52:54.461Z,23.30
2018-09-18T00:53:57.561Z,23.30
2018-09-18T00:55:00.564Z,23.30
2018-09-18T00:56:03.644Z,23.30
2018-09-18T00:57:06.891Z,23.30
2018-09-18T00:58:09.979Z,23.30
2018-09-18T00:59:13.041Z,23.30
2018-09-18T01:00:16.113Z,23.30
2018-09-18T01:01:19.832Z,23.30
2018-09-18T01:02:24.140Z,23.30
2018-09-18T01:03:27.182Z,23.30
2018-09-18T01:04:30.864Z,23.30
2018-09-18T01:05:33.928Z,23.30
2018-09-18T01:06:36.993Z,23.30
2018-09-18T01:07:40.036Z,23.20
2018-09-18T01:08:43.105Z,23.30
2018-09-18T01:09:46.136Z,23.20
2018-09-18T01:10:49.181Z,23.20
2018-09-18T01:11:52.264Z,23.20
2018-09-18T01:12:55.335Z,23.30
2018-09-18T01:13:58.410Z,23.20
2018-09-18T01:15:01.432Z,23.20
2018-09-18T01:16:04.471Z,23.20
2018-09-18T01:17:07.819Z,23.20
2018-09-18T01:18:11.159Z,23.20
2018-09-18T01:19:14.232Z,23.20
2018-09-18T01:20:17.279Z,23.20
2018-09-18T01:21:20.360Z,23.30
2018-09-18T01:22:24.205Z,23.20
2018-09-18T01:23:27.431Z,23.20
2018-09-18T01:24:30.884Z,23.20
2018-09-18T01:25:33.967Z,23.20
2018-09-18T01:26:37.016Z,23.20
2018-09-18T01:27:40.113Z,23.20
2018-09-18T01:28:43.184Z,23.20
2018-09-18T01:29:46.272Z,23.20
2018-09-18T01:30:49.446Z,23.20
2018-09-18T01:31:52.550Z,23.20
2018-09-18T01:32:55.592Z,23.20
2018-09-18T01:33:58.700Z,23.20
2018-09-18T01:35:01.772Z,23.20
2018-09-18T01:36:04.990Z,23.20
2018-09-18T01:37:08.100Z,23.20
2018-09-18T01:38:11.167Z,23.20
2018-09-18T01:39:14.228Z,23.20
2018-09-18T01:40:17.272Z,23.20
2018-09-18T01:41:20.352Z,23.20
2018-09-18T01:42:23.436Z,23.20
2018-09-18T01:43:26.500Z,23.20
2018-09-18T01:44:29.712Z,23.20
2018-09-18T01:45:32.839Z,23.20
2018-09-18T01:46:35.938Z,23.20
2018-09-18T01:47:39.006Z,23.20
2018-09-18T01:48:42.202Z,23.20
2018-09-18T01:49:45.383Z,23.20
2018-09-18T01:50:48.540Z,23.20
2018-09-18T01:51:51.703Z,23.20
2018-09-18T01:52:54.761Z,23.20
2018-09-18T01:53:57.839Z,23.20
2018-09-18T01:55:00.916Z,23.20
2018-09-18T01:56:04.090Z,23.20
2018-09-18T01:57:07.639Z,23.20
2018-09-18T01:58:10.975Z,23.20
2018-09-18T01:59:14.056Z,23.20
2018-09-18T02:00:17.612Z,23.20
2018-09-18T02:01:20.882Z,23.20
2018-09-18T02:02:23.977Z,23.20
2018-09-18T02:03:27.104Z,23.20
2018-09-18T02:04:30.252Z,23.20
2018-09-18T02:05:33.507Z,23.20
2018-09-18T02:06:36.614Z,23.20
2018-09-18T02:07:40.265Z,23.20
2018-09-18T02:08:43.678Z,23.20
2018-09-18T02:09:46.965Z,23.20
2018-09-18T02:10:50.073Z,23.20
2018-09-18T02:11:53.276Z,23.20
2018-09-18T02:12:56.382Z,23.20
2018-09-18T02:13:59.455Z,23.20
2018-09-18T02:15:02.484Z,23.20
2018-09-18T02:16:05.664Z,23.20
2018-09-18T02:17:08.736Z,23.20
2018-09-18T02:18:11.784Z,23.20
2018-09-18T02:19:14.841Z,23.20
2018-09-18T02:20:18.321Z,23.20
2018-09-18T02:21:21.523Z,23.20
2018-09-18T02:22:24.568Z,23.20
2018-09-18T02:23:27.716Z,23.20
2018-09-18T02:24:30.799Z,23.20
2018-09-18T02:25:33.908Z,23.20
2018-09-18T02:26:37.554Z,23.20
2018-09-18T02:27:41.256Z,23.20
2018-09-18T02:28:44.481Z,23.20
2018-09-18T02:29:47.524Z,23.20
2018-09-18T02:30:50.638Z,23.10
2018-09-18T02:31:53.856Z,23.20
2018-09-18T02:32:56.855Z,23.20
2018-09-18T02:34:00.013Z,23.10
2018-09-18T02:35:03.023Z,23.20
2018-09-18T02:36:06.362Z,23.10
2018-09-18T02:37:09.523Z,23.10
2018-09-18T02:38:12.569Z,23.10
2018-09-18T02:39:15.715Z,23.10
2018-09-18T02:40:18.768Z,23.20
2018-09-18T02:41:22.244Z,23.10
2018-09-18T02:42:25.382Z,23.10
2018-09-18T02:43:28.504Z,23.10
2018-09-18T02:44:31.581Z,23.10
2018-09-18T02:45:34.611Z,23.10
2018-09-18T02:46:37.688Z,23.10
2018-09-18T02:47:40.779Z,23.10
2018-09-18T02:48:43.809Z,23.20
2018-09-18T02:49:46.965Z,23.20
2018-09-18T02:50:50.040Z,23.10
2018-09-18T02:51:53.155Z,23.10
2018-09-18T02:52:56.224Z,23.10
2018-09-18T02:53:59.273Z,23.20
2018-09-18T02:55:02.512Z,23.10
2018-09-18T02:56:05.483Z,23.10
2018-09-18T02:57:08.660Z,23.20
2018-09-18T02:58:11.812Z,23.10
2018-09-18T02:59:15.062Z,23.10
2018-09-18T03:00:18.168Z,23.10
2018-09-18T03:01:21.245Z,23.10
2018-09-18T03:02:24.369Z,23.10
2018-09-18T03:03:28.045Z,23.10
2018-09-18T03:04:31.352Z,23.10
2018-09-18T03:05:34.606Z,23.10
2018-09-18T03:06:37.740Z,23.10
2018-09-18T03:07:40.969Z,23.10
2018-09-18T03:08:44.820Z,23.10
2018-09-18T03:09:50.841Z,23.10
2018-09-18T03:10:54.832Z,23.10
2018-09-18T03:11:58.037Z,23.10
2018-09-18T03:13:01.115Z,23.10
2018-09-18T03:14:06.780Z,23.10
2018-09-18T03:15:09.954Z,23.10
2018-09-18T03:16:13.148Z,23.10
2018-09-18T03:17:16.408Z,23.10
2018-09-18T03:18:19.572Z,23.10
2018-09-18T03:19:22.693Z,23.10
2018-09-18T03:20:25.809Z,23.10
2018-09-18T03:21:28.881Z,23.10
2018-09-18T03:22:31.961Z,23.00
2018-09-18T03:23:35.042Z,23.10
2018-09-18T03:24:38.176Z,23.10
2018-09-18T03:25:41.302Z,23.10
2018-09-18T03:26:44.377Z,23.10
2018-09-18T03:27:47.578Z,23.10
2018-09-18T03:28:50.667Z,23.10
2018-09-18T03:29:53.784Z,23.10
2018-09-18T03:30:56.867Z,23.10
2018-09-18T03:32:00.005Z,23.10
2018-09-18T03:33:03.440Z,23.10
2018-09-18T03:34:06.599Z,23.10
2018-09-18T03:35:09.704Z,23.10
2018-09-18T03:36:13.097Z,23.10
2018-09-18T03:37:16.440Z,23.10
2018-09-18T03:38:19.582Z,23.10
2018-09-18T03:39:22.831Z,23.10
2018-09-18T03:40:26.180Z,23.10
2018-09-18T03:41:30.232Z,23.10
2018-09-18T03:42:33.308Z,23.10
2018-09-18T03:43:36.388Z,23.10
2018-09-18T03:44:39.485Z,23.10
2018-09-18T03:45:42.468Z,23.10
2018-09-18T03:46:45.689Z,23.10
2018-09-18T03:47:48.852Z,23.10
2018-09-18T03:48:51.960Z,23.10
2018-09-18T03:49:55.032Z,23.10
2018-09-18T03:50:58.137Z,23.10
2018-09-18T03:52:01.626Z,23.10
2018-09-18T03:53:04.804Z,23.10
2018-09-18T03:54:07.914Z,23.10
2018-09-18T03:55:12.856Z,23.10
2018-09-18T03:56:15.879Z,23.10
2018-09-18T03:57:20.354Z,23.10
2018-09-18T03:58:23.483Z,23.10
2018-09-18T03:59:26.519Z,23.00
2018-09-18T04:00:29.821Z,23.10
2018-09-18T04:01:33.048Z,23.10
2018-09-18T04:02:36.120Z,23.10
2018-09-18T04:03:39.269Z,23.00
2018-09-18T04:04:42.414Z,23.00
2018-09-18T04:05:45.667Z,23.00
2018-09-18T04:06:49.026Z,23.00
2018-09-18T04:07:52.274Z,23.00
2018-09-18T04:08:55.506Z,23.10
2018-09-18T04:09:58.745Z,23.00
2018-09-18T04:11:02.236Z,23.10
2018-09-18T04:12:05.529Z,23.10
2018-09-18T04:13:08.732Z,23.10
2018-09-18T04:14:11.964Z,23.00
2018-09-18T04:15:15.177Z,23.10
2018-09-18T04:16:18.292Z,23.00
2018-09-18T04:17:22.163Z,23.00
2018-09-18T04:18:26.678Z,23.10
2018-09-18T04:19:29.915Z,23.00
2018-09-18T04:20:33.174Z,23.00
2018-09-18T04:21:40.522Z,23.10
2018-09-18T04:22:43.585Z,23.10
2018-09-18T04:23:46.788Z,23.00
2018-09-18T04:24:49.844Z,23.00
2018-09-18T04:25:52.872Z,23.00
2018-09-18T04:26:55.944Z,23.00
2018-09-18T04:27:59.083Z,23.00
2018-09-18T04:29:02.245Z,23.00
2018-09-18T04:30:05.356Z,23.10
2018-09-18T04:31:08.647Z,23.00
2018-09-18T04:32:11.718Z,23.10
2018-09-18T04:33:14.747Z,23.00
2018-09-18T04:34:17.937Z,23.00
2018-09-18T04:35:21.050Z,23.00
2018-09-18T04:36:24.133Z,23.00
2018-09-18T04:37:27.497Z,23.00
2018-09-18T04:38:30.863Z,23.00
2018-09-18T04:39:33.913Z,23.00
2018-09-18T04:40:36.941Z,23.00
2018-09-18T04:41:40.033Z,23.00
2018-09-18T04:42:43.047Z,23.00
2018-09-18T04:43:46.089Z,23.00
2018-09-18T04:44:49.101Z,23.00
2018-09-18T04:45:52.205Z,23.00
2018-09-18T04:46:55.235Z,23.00
2018-09-18T04:47:58.296Z,23.00
2018-09-18T04:49:01.815Z,23.00
2018-09-18T04:50:05.563Z,23.00
2018-09-18T04:51:08.855Z,23.00
2018-09-18T04:52:11.861Z,23.00
2018-09-18T04:53:14.940Z,23.00
2018-09-18T04:54:18.037Z,23.00
2018-09-18T04:55:21.069Z,22.70
2018-09-18T04:56:24.143Z,23.00
2018-09-18T04:57:27.209Z,23.00
2018-09-18T04:58:30.503Z,23.00
2018-09-18T04:59:33.655Z,23.00
2018-09-18T05:00:36.720Z,23.00
2018-09-18T05:01:39.852Z,23.00
2018-09-18T05:02:42.908Z,23.00
2018-09-18T05:03:46.048Z,23.00
2018-09-18T05:04:49.118Z,23.00
2018-09-18T05:05:52.112Z,23.00
2018-09-18T05:06:55.217Z,23.00
2018-09-18T05:07:58.284Z,23.00
2018-09-18T05:09:01.346Z,23.00
2018-09-18T05:10:04.458Z,23.00
2018-09-18T05:11:07.479Z,23.00
2018-09-18T05:12:10.580Z,23.00
2018-09-18T05:13:13.623Z,23.00
2018-09-18T05:14:16.656Z,23.00
2018-09-18T05:15:19.775Z,23.00
2018-09-18T05:16:22.872Z,23.00
2018-09-18T05:17:25.920Z,23.00
2018-09-18T05:18:29.006Z,23.00
2018-09-18T05:19:31.980Z,23.00
2018-09-18T05:20:35.029Z,23.00
2018-09-18T05:21:38.037Z,23.00
2018-09-18T05:22:41.080Z,23.00
2018-09-18T05:23:44.148Z,23.00
2018-09-18T05:24:47.190Z,23.00
2018-09-18T05:25:50.409Z,23.00
2018-09-18T05:26:53.448Z,23.00
2018-09-18T05:27:56.487Z,23.00
2018-09-18T05:28:59.643Z,23.00
2018-09-18T05:30:02.692Z,23.00
2018-09-18T05:31:05.732Z,23.00
2018-09-18T05:32:08.872Z,23.00
2018-09-18T05:33:12.048Z,23.00
2018-09-18T05:34:15.132Z,23.00
2018-09-18T05:35:18.088Z,23.00
2018-09-18T05:36:21.214Z,23.00
2018-09-18T05:37:24.187Z,23.00
2018-09-18T05:38:27.247Z,23.00
2018-09-18T05:39:30.376Z,23.00
2018-09-18T05:40:34.121Z,23.00
2018-09-18T05:41:37.932Z,23.00
2018-09-18T05:42:41.449Z,23.00
2018-09-18T05:43:44.614Z,23.00
2018-09-18T05:44:47.848Z,23.00
2018-09-18T05:45:52.211Z,23.00
2018-09-18T05:46:55.831Z,23.00
2018-09-18T05:47:58.991Z,23.00
2018-09-18T05:49:02.132Z,23.00
2018-09-18T05:50:05.473Z,23.00
2018-09-18T05:51:08.531Z,23.00
2018-09-18T05:52:11.643Z,23.00
2018-09-18T05:53:14.692Z,23.00
2018-09-18T05:54:17.764Z,23.00
2018-09-18T05:55:20.831Z,23.00
2018-09-18T05:56:23.885Z,23.00
2018-09-18T05:57:26.941Z,23.00
2018-09-18T05:58:30.016Z,23.00
2018-09-18T05:59:33.205Z,23.00
2018-09-18T06:00:36.433Z,23.00
2018-09-18T06:01:39.505Z,23.00
2018-09-18T06:02:42.596Z,23.00
2018-09-18T06:03:45.625Z,23.00
2018-09-18T06:04:48.670Z,23.00
2018-09-18T06:05:51.681Z,23.00
2018-09-18T06:06:54.740Z,23.00
2018-09-18T06:07:58.402Z,23.00
2018-09-18T06:09:01.436Z,23.00
2018-09-18T06:10:04.893Z,23.00
2018-09-18T06:11:08.133Z,23.00
2018-09-18T06:12:11.165Z,23.00
2018-09-18T06:13:14.240Z,23.00
2018-09-18T06:14:17.355Z,23.00
2018-09-18T06:15:20.428Z,23.00
2018-09-18T06:16:23.504Z,23.00
2018-09-18T06:17:26.596Z,23.00
2018-09-18T06:18:29.620Z,23.00
2018-09-18T06:19:32.648Z,23.00
2018-09-18T06:20:35.710Z,23.00
2018-09-18T06:21:38.800Z,23.00
2018-09-18T06:22:41.811Z,23.00
2018-09-18T06:23:44.828Z,23.00
2018-09-18T06:24:48.696Z,23.00
2018-09-18T06:25:52.457Z,23.00
2018-09-18T06:26:55.718Z,23.00
2018-09-18T06:27:58.781Z,23.00
2018-09-18T06:29:01.886Z,23.00
2018-09-18T06:30:05.189Z,23.00
2018-09-18T06:31:08.243Z,23.00
2018-09-18T06:32:11.323Z,23.00
2018-09-18T06:33:14.708Z,23.00
2018-09-18T06:34:17.711Z,23.00
2018-09-18T06:35:21.877Z,23.00
2018-09-18T06:36:25.002Z,23.00
2018-09-18T06:37:28.200Z,23.00
2018-09-18T06:38:31.236Z,23.00
2018-09-18T06:39:34.248Z,23.00
2018-09-18T06:40:37.422Z,23.00
2018-09-18T06:41:40.672Z,23.00
2018-09-18T06:42:43.708Z,23.00
2018-09-18T06:43:46.704Z,23.00
2018-09-18T06:44:49.768Z,23.00
2018-09-18T06:45:52.804Z,23.00
2018-09-18T06:46:55.812Z,23.00
2018-09-18T06:47:58.869Z,23.00
2018-09-18T06:49:01.922Z,23.00
2018-09-18T06:50:05.000Z,23.00
2018-09-18T06:51:08.029Z,23.00
2018-09-18T06:52:11.099Z,23.00
2018-09-18T06:53:14.116Z,23.00
2018-09-18T06:54:17.165Z,23.00
2018-09-18T06:55:20.165Z,23.00
2018-09-18T06:56:23.314Z,23.00
2018-09-18T06:57:26.342Z,23.00
2018-09-18T06:58:29.382Z,23.00
2018-09-18T06:59:32.505Z,23.00
2018-09-18T07:00:35.579Z,23.00
2018-09-18T07:01:38.613Z,23.00
2018-09-18T07:02:41.619Z,23.00
2018-09-18T07:03:44.640Z,23.00
2018-09-18T07:04:47.676Z,23.00
2018-09-18T07:05:51.217Z,23.00
2018-09-18T07:06:54.332Z,23.10
2018-09-18T07:07:57.456Z,23.10
2018-09-18T07:09:00.621Z,23.10
2018-09-18T07:10:03.639Z,23.10
2018-09-18T07:11:06.764Z,23.10
2018-09-18T07:12:09.952Z,23.10
2018-09-18T07:13:13.096Z,23.20
2018-09-18T07:14:16.172Z,23.20
2018-09-18T07:15:19.387Z,23.20
2018-09-18T07:16:22.611Z,23.20
2018-09-18T07:17:25.768Z,23.20
2018-09-18T07:18:29.155Z,23.30
2018-09-18T07:19:32.393Z,23.30
2018-09-18T07:20:35.468Z,23.30
2018-09-18T07:21:38.537Z,23.30
2018-09-18T07:22:41.565Z,23.30
2018-09-18T07:23:44.616Z,23.30
2018-09-18T07:24:47.844Z,23.30
2018-09-18T07:25:50.983Z,23.40
2018-09-18T07:26:54.087Z,23.40
2018-09-18T07:27:57.184Z,23.40
2018-09-18T07:29:00.292Z,23.40
2018-09-18T07:30:03.600Z,23.50
2018-09-18T07:31:06.600Z,23.50
2018-09-18T07:32:09.681Z,23.50
2018-09-18T07:33:12.947Z,23.50
2018-09-18T07:34:16.067Z,23.50
2018-09-18T07:35:19.135Z,23.50
2018-09-18T07:36:22.291Z,23.50
2018-09-18T07:37:25.330Z,23.50
2018-09-18T07:38:28.464Z,23.60
2018-09-18T07:39:31.582Z,23.60
2018-09-18T07:40:34.603Z,23.60
2018-09-18T07:41:37.779Z,23.60
2018-09-18T07:42:40.964Z,23.60
2018-09-18T07:43:44.128Z,23.60
2018-09-18T07:44:47.396Z,23.60
2018-09-18T07:45:50.511Z,23.60
2018-09-18T07:46:54.452Z,23.60
2018-09-18T07:47:57.551Z,23.60
2018-09-18T07:49:04.626Z,23.70
2018-09-18T07:50:07.812Z,23.70
2018-09-18T07:51:10.941Z,23.70
2018-09-18T07:52:14.076Z,23.70
2018-09-18T07:53:17.067Z,23.70
2018-09-18T07:54:20.165Z,23.80
2018-09-18T07:55:23.378Z,23.80
2018-09-18T07:56:26.776Z,23.80
2018-09-18T07:57:29.911Z,23.80
2018-09-18T07:58:33.109Z,23.80
2018-09-18T07:59:36.135Z,23.80
2018-09-18T08:00:39.448Z,23.90
2018-09-18T08:01:42.604Z,23.90
2018-09-18T08:02:45.798Z,23.90
2018-09-18T08:03:49.300Z,24.00
2018-09-18T08:04:52.488Z,24.00
2018-09-18T08:05:55.515Z,24.00
2018-09-18T08:06:58.621Z,24.00
2018-09-18T08:08:01.726Z,24.10
2018-09-18T08:09:08.108Z,24.10
2018-09-18T08:10:11.237Z,24.10
2018-09-18T08:11:14.268Z,24.10
2018-09-18T08:12:17.323Z,24.20
2018-09-18T08:13:20.316Z,24.20
2018-09-18T08:14:23.396Z,24.20
2018-09-18T08:15:26.449Z,24.20
2018-09-18T08:16:29.569Z,24.20
2018-09-18T08:17:32.609Z,24.30
2018-09-18T08:18:35.644Z,24.30
2018-09-18T08:19:38.834Z,24.30
2018-09-18T08:20:41.767Z,24.30
2018-09-18T08:21:44.839Z,24.30
2018-09-18T08:22:48.892Z,24.30
2018-09-18T08:23:51.917Z,24.30
2018-09-18T08:24:54.995Z,24.30
2018-09-18T08:25:58.071Z,24.30
2018-09-18T08:27:01.269Z,24.30
2018-09-18T08:28:04.335Z,24.30
2018-09-18T08:29:07.432Z,24.40
2018-09-18T08:30:10.545Z,24.40
2018-09-18T08:31:13.621Z,24.40
2018-09-18T08:32:16.725Z,24.40
2018-09-18T08:33:19.802Z,24.50
2018-09-18T08:34:22.900Z,24.50
2018-09-18T08:35:25.993Z,24.60
2018-09-18T08:36:29.191Z,24.70
2018-09-18T08:37:32.232Z,24.70
2018-09-18T08:38:35.372Z,24.80
2018-09-18T08:39:38.499Z,24.80
2018-09-18T08:40:41.451Z,24.90
2018-09-18T08:41:44.514Z,24.90
2018-09-18T08:42:47.537Z,25.00
2018-09-18T08:43:50.584Z,25.00
2018-09-18T08:44:53.599Z,25.00
2018-09-18T08:45:56.701Z,25.00
2018-09-18T08:46:59.767Z,25.10
2018-09-18T08:48:02.870Z,25.10
2018-09-18T08:49:05.877Z,25.10
2018-09-18T08:50:08.938Z,25.20
2018-09-18T08:51:12.044Z,25.20
2018-09-18T08:52:15.098Z,25.20
2018-09-18T08:53:18.374Z,25.20
2018-09-18T08:54:21.608Z,25.30
2018-09-18T08:55:25.017Z,25.20
2018-09-18T08:56:28.105Z,25.30
2018-09-18T08:57:31.173Z,25.30
2018-09-18T08:58:34.248Z,25.30
2018-09-18T08:59:37.475Z,25.30
2018-09-18T09:00:40.545Z,25.40
2018-09-18T09:01:43.699Z,25.40
2018-09-18T09:02:46.809Z,25.40
2018-09-18T09:03:49.909Z,25.40
2018-09-18T09:04:52.835Z,25.40
2018-09-18T09:05:55.994Z,25.40
2018-09-18T09:06:58.954Z,25.40
2018-09-18T09:08:02.160Z,25.40
2018-09-18T09:09:08.981Z,25.40
2018-09-18T09:10:12.256Z,25.40
2018-09-18T09:11:15.250Z,25.40
2018-09-18T09:12:18.258Z,25.40
2018-09-18T09:13:21.297Z,25.40
2018-09-18T09:14:24.360Z,25.40
2018-09-18T09:15:27.313Z,25.40
2018-09-18T09:16:30.345Z,25.40
2018-09-18T09:17:33.417Z,25.50
2018-09-18T09:18:36.522Z,25.50
2018-09-18T09:19:39.539Z,25.40
2018-09-18T09:20:42.574Z,25.40
2018-09-18T09:21:45.891Z,25.40
2018-09-18T09:22:48.976Z,25.40
2018-09-18T09:23:51.896Z,25.40
2018-09-18T09:24:54.967Z,25.30
2018-09-18T09:25:57.992Z,25.30
2018-09-18T09:27:01.050Z,25.30
2018-09-18T09:28:04.183Z,25.30
2018-09-18T09:29:07.359Z,25.30
2018-09-18T09:30:10.625Z,25.30
2018-09-18T09:31:13.853Z,25.30
2018-09-18T09:32:17.134Z,25.30
2018-09-18T09:33:20.073Z,25.30
2018-09-18T09:34:23.183Z,25.30
2018-09-18T09:35:26.306Z,25.20
2018-09-18T09:36:29.384Z,25.20
2018-09-18T09:37:32.468Z,25.40
2018-09-18T09:38:35.480Z,25.30
2018-09-18T09:39:38.627Z,25.20
2018-09-18T09:40:41.779Z,25.20
2018-09-18T09:41:45.012Z,25.20
2018-09-18T09:42:48.141Z,25.20
2018-09-18T09:43:51.271Z,25.20
2018-09-18T09:44:54.448Z,25.20
2018-09-18T09:45:57.431Z,25.20
2018-09-18T09:47:00.477Z,25.20
2018-09-18T09:48:03.566Z,25.20
2018-09-18T09:49:06.578Z,25.20
2018-09-18T09:50:09.669Z,25.20
2018-09-18T09:51:12.813Z,25.20
2018-09-18T09:52:16.088Z,25.20
2018-09-18T09:53:19.155Z,25.20
2018-09-18T09:54:22.272Z,25.20
2018-09-18T09:55:25.458Z,25.20
2018-09-18T09:56:28.680Z,25.20
2018-09-18T09:57:31.713Z,25.20
2018-09-18T09:58:34.735Z,25.20
2018-09-18T09:59:37.868Z,25.20
2018-09-18T10:00:41.360Z,25.20
2018-09-18T10:01:50.502Z,25.20
2018-09-18T10:02:53.516Z,25.20
2018-09-18T10:03:56.871Z,25.20
2018-09-18T10:04:59.891Z,25.20
2018-09-18T10:06:02.972Z,25.20
2018-09-18T10:07:05.996Z,25.20
2018-09-18T10:08:09.064Z,25.20
2018-09-18T10:09:12.879Z,25.20
2018-09-18T10:10:15.889Z,25.00
2018-09-18T10:11:18.980Z,25.10
2018-09-18T10:12:21.974Z,25.10
2018-09-18T10:13:25.033Z,25.00
2018-09-18T10:14:28.044Z,25.10
2018-09-18T10:15:31.067Z,25.00
2018-09-18T10:16:34.243Z,25.00
2018-09-18T10:17:37.547Z,25.00
2018-09-18T10:18:40.670Z,25.00
2018-09-18T10:19:43.753Z,25.00
2018-09-18T10:20:46.795Z,24.90
2018-09-18T10:21:50.405Z,25.00
2018-09-18T10:22:53.398Z,24.90
2018-09-18T10:23:56.564Z,25.00
2018-09-18T10:24:59.637Z,25.00
2018-09-18T10:26:02.656Z,24.90
2018-09-18T10:27:06.049Z,24.90
2018-09-18T10:28:08.849Z,25.00
2018-09-18T10:29:11.893Z,25.00
2018-09-18T10:30:14.962Z,25.00
2018-09-18T10:31:18.005Z,25.00
2018-09-18T10:32:21.040Z,25.00
2018-09-18T10:33:24.048Z,25.00
2018-09-18T10:34:27.109Z,25.10
2018-09-18T10:35:30.232Z,25.10
2018-09-18T10:36:33.217Z,25.10
2018-09-18T10:37:36.217Z,25.10
2018-09-18T10:38:41.216Z,25.10
2018-09-18T10:39:45.220Z,25.10
2018-09-18T10:40:48.300Z,25.10
2018-09-18T10:41:51.466Z,25.20
2018-09-18T10:42:54.478Z,25.20
2018-09-18T10:43:57.499Z,25.20
2018-09-18T10:45:00.484Z,25.20
2018-09-18T10:46:03.621Z,25.20
2018-09-18T10:47:06.690Z,25.20
2018-09-18T10:48:09.713Z,25.20
2018-09-18T10:49:12.741Z,25.20
2018-09-18T10:50:15.792Z,25.20
2018-09-18T10:51:19.126Z,25.20
2018-09-18T10:52:22.143Z,25.20
2018-09-18T10:53:25.293Z,25.20
2018-09-18T10:54:28.383Z,25.20
2018-09-18T10:55:31.615Z,25.20
2018-09-18T10:56:34.704Z,25.20
2018-09-18T10:57:37.746Z,25.20
2018-09-18T10:58:40.771Z,25.20
2018-09-18T10:59:43.892Z,25.20
2018-09-18T11:00:46.972Z,25.20
2018-09-18T11:01:50.226Z,25.20
2018-09-18T11:02:53.211Z,25.20
2018-09-18T11:03:56.274Z,25.30
2018-09-18T11:04:59.274Z,25.30
2018-09-18T11:06:02.258Z,25.30
2018-09-18T11:07:05.430Z,25.10
2018-09-18T11:08:08.392Z,25.20
2018-09-18T11:09:12.171Z,25.20
2018-09-18T11:10:15.098Z,25.20
2018-09-18T11:11:18.100Z,25.20
2018-09-18T11:12:21.126Z,25.20
2018-09-18T11:13:24.248Z,25.30
2018-09-18T11:14:27.212Z,25.20
2018-09-18T11:15:30.348Z,25.20
2018-09-18T11:16:33.468Z,25.20
2018-09-18T11:17:36.353Z,25.20
2018-09-18T11:18:39.427Z,25.20
2018-09-18T11:19:42.437Z,25.20
2018-09-18T11:20:45.457Z,25.20
2018-09-18T11:21:48.523Z,25.20
2018-09-18T11:22:51.727Z,25.20
2018-09-18T11:23:55.015Z,25.20
2018-09-18T11:24:58.306Z,25.20
2018-09-18T11:26:01.579Z,25.20
2018-09-18T11:27:05.258Z,25.20
2018-09-18T11:28:08.405Z,25.20
2018-09-18T11:29:11.479Z,25.20
2018-09-18T11:30:14.509Z,25.20
2018-09-18T11:31:17.630Z,25.20
2018-09-18T11:32:20.574Z,25.20
2018-09-18T11:33:24.508Z,25.20
2018-09-18T11:34:28.980Z,25.20
2018-09-18T11:35:32.105Z,25.10
2018-09-18T11:36:35.125Z,25.10
2018-09-18T11:37:38.165Z,25.20
2018-09-18T11:38:41.224Z,25.10
2018-09-18T11:39:44.240Z,25.10
2018-09-18T11:40:47.227Z,25.10
2018-09-18T11:41:50.297Z,25.10
2018-09-18T11:42:53.376Z,25.10
2018-09-18T11:43:56.581Z,25.10
2018-09-18T11:45:00.277Z,25.10
2018-09-18T11:46:03.472Z,25.10
2018-09-18T11:47:06.454Z,25.10
2018-09-18T11:48:09.578Z,25.10
2018-09-18T11:49:12.968Z,25.10
2018-09-18T11:50:15.999Z,25.10
2018-09-18T11:51:19.493Z,25.10
2018-09-18T11:52:22.476Z,25.10
2018-09-18T11:53:25.615Z,25.10
2018-09-18T11:54:28.636Z,25.10
2018-09-18T11:55:31.684Z,25.10
2018-09-18T11:56:34.819Z,25.10
2018-09-18T11:57:40.192Z,25.10
2018-09-18T11:58:43.303Z,25.10
2018-09-18T11:59:46.363Z,25.10
2018-09-18T12:00:49.436Z,25.10
2018-09-18T12:01:52.712Z,25.10
2018-09-18T12:02:55.788Z,25.10
2018-09-18T12:03:58.828Z,25.10
2018-09-18T12:05:01.952Z,25.10
2018-09-18T12:06:04.853Z,25.10
2018-09-18T12:07:07.903Z,25.00
2018-09-18T12:08:10.951Z,25.10
2018-09-18T12:09:14.044Z,25.00
2018-09-18T12:10:17.168Z,25.10
2018-09-18T12:11:20.406Z,25.10
2018-09-18T12:12:23.409Z,25.00
2018-09-18T12:13:26.544Z,25.00
2018-09-18T12:14:29.560Z,25.00
2018-09-18T12:15:32.593Z,25.00
2018-09-18T12:16:35.789Z,25.00
2018-09-18T12:17:38.908Z,25.00
2018-09-18T12:18:41.938Z,25.00
2018-09-18T12:19:45.069Z,25.00
2018-09-18T12:20:48.132Z,25.00
2018-09-18T12:21:51.122Z,25.00
2018-09-18T12:22:54.208Z,25.00
2018-09-18T12:23:57.480Z,25.00
2018-09-18T12:25:00.603Z,25.00
2018-09-18T12:26:03.654Z,25.00
2018-09-18T12:27:06.703Z,25.00
2018-09-18T12:28:09.717Z,25.00
2018-09-18T12:29:12.671Z,25.00
2018-09-18T12:30:15.746Z,25.00
2018-09-18T12:31:18.997Z,25.00
2018-09-18T12:32:22.077Z,24.90
2018-09-18T12:33:25.093Z,24.90
2018-09-18T12:34:28.125Z,24.90
2018-09-18T12:35:31.291Z,24.90
2018-09-18T12:36:34.245Z,24.90
2018-09-18T12:37:37.207Z,24.90
2018-09-18T12:38:40.236Z,24.90
2018-09-18T12:39:43.344Z,24.90
2018-09-18T12:40:46.486Z,24.90
2018-09-18T12:41:49.561Z,24.80
2018-09-18T12:42:52.609Z,24.80
2018-09-18T12:43:55.721Z,24.80
2018-09-18T12:44:58.718Z,24.80
2018-09-18T12:46:01.777Z,24.80
2018-09-18T12:47:04.792Z,24.80
2018-09-18T12:48:07.932Z,24.80
2018-09-18T12:49:10.868Z,24.80
2018-09-18T12:50:14.165Z,24.80
2018-09-18T12:51:16.881Z,24.80
2018-09-18T12:52:19.987Z,24.80
2018-09-18T12:53:23.088Z,24.80
2018-09-18T12:54:26.080Z,24.80
2018-09-18T12:55:29.148Z,24.80
2018-09-18T12:56:32.194Z,24.80
2018-09-18T12:57:35.355Z,24.80
2018-09-18T12:58:38.312Z,24.80
2018-09-18T12:59:41.398Z,24.80
2018-09-18T13:00:44.360Z,24.80
2018-09-18T13:01:47.372Z,24.80
2018-09-18T13:02:50.371Z,24.90
2018-09-18T13:03:53.520Z,24.90
2018-09-18T13:04:56.663Z,24.90
2018-09-18T13:05:59.707Z,24.80
2018-09-18T13:07:02.771Z,24.90
2018-09-18T13:08:05.747Z,24.90
2018-09-18T13:09:10.223Z,24.80
2018-09-18T13:10:13.285Z,24.90
2018-09-18T13:11:18.061Z,24.90
2018-09-18T13:12:22.578Z,24.90
2018-09-18T13:13:25.584Z,24.90
2018-09-18T13:14:28.589Z,24.90
2018-09-18T13:15:31.665Z,24.90
2018-09-18T13:16:34.717Z,25.00
2018-09-18T13:17:37.787Z,25.00
2018-09-18T13:18:40.668Z,25.00
2018-09-18T13:19:43.657Z,25.00
2018-09-18T13:20:46.708Z,25.00
2018-09-18T13:21:49.695Z,25.00
2018-09-18T13:22:52.692Z,25.00
2018-09-18T13:23:56.045Z,25.00
2018-09-18T13:24:59.212Z,25.00
2018-09-18T13:26:02.393Z,25.00
2018-09-18T13:27:05.596Z,25.00
2018-09-18T13:28:08.660Z,25.00
2018-09-18T13:29:11.986Z,25.00
2018-09-18T13:30:15.010Z,25.00
2018-09-18T13:31:18.035Z,25.00
2018-09-18T13:32:21.017Z,25.10
2018-09-18T13:33:24.166Z,25.10